Time;durP1;ratioP1;P1;durP2;ratioP2;P2;SDS_P1;SDS_P2;PMS_P1;PMS_P2;Temp;Humidity;BMP_temperature;BMP_pressure;BME280_temperature;BME280_humidity;BME280_pressure;Samples;Min_cycle;Max_cycle;Signal;HPM_P1;HPM_P2
2024/02/09 00:00:36;;;;;;;14.13;6.60;;;;;;;;;;5024549;28;20061;-58
2024/02/09 00:03:01;;;;;;;13.35;6.18;;;;;;;;;;5023235;28;20100;-58
2024/02/09 00:05:26;;;;;;;14.90;6.97;;;;;;;;;;5029057;28;20113;-58
2024/02/09 00:07:51;;;;;;;12.90;6.50;;;;;;;;;;5032352;28;20029;-58
2024/02/09 00:10:20;;;;;;;14.88;6.97;;;;;;;;;;5035755;28;20508;-57
2024/02/09 00:12:45;;;;;;;16.00;7.05;;;;;;;;;;5037665;28;20018;-59
2024/02/09 00:15:10;;;;;;;16.45;7.32;;;;;;;;;;5045653;28;20527;-58
2024/02/09 00:17:36;;;;;;;18.30;7.60;;;;;;;;;;5037800;28;20029;-58
2024/02/09 00:20:07;;;;;;;15.02;7.15;;;;;;;;;;5032733;28;20030;-59
2024/02/09 00:22:32;;;;;;;14.95;6.80;;;;;;;;;;5033565;28;20075;-59
2024/02/09 00:24:57;;;;;;;15.17;6.93;;;;;;;;;;5035812;28;20025;-58
2024/02/09 00:27:22;;;;;;;14.48;6.65;;;;;;;;;;5023817;28;20441;-57
2024/02/09 00:29:47;;;;;;;13.63;6.43;;;;;;;;;;5033600;28;20026;-58
2024/02/09 00:32:14;;;;;;;13.57;6.38;;;;;;;;;;5029849;28;20037;-58
2024/02/09 00:34:39;;;;;;;16.60;6.82;;;;;;;;;;5021915;28;20056;-59
2024/02/09 00:37:06;;;;;;;12.35;6.00;;;;;;;;;;5028140;28;20045;-59
2024/02/09 00:39:33;;;;;;;;;;;;;;;;;;5020898;28;20056;-58
2024/02/09 00:41:59;;;;;;;13.50;6.18;;;;;;;;;;5027323;28;20377;-59
2024/02/09 00:44:24;;;;;;;15.75;6.80;;;;;;;;;;5029646;28;20029;-59
2024/02/09 00:46:50;;;;;;;17.25;7.47;;;;;;;;;;5028996;28;20536;-58
2024/02/09 00:49:15;;;;;;;13.35;6.65;;;;;;;;;;5023805;28;20033;-57
2024/02/09 00:51:41;;;;;;;15.02;6.88;;;;;;;;;;5028693;28;20141;-58
2024/02/09 00:54:06;;;;;;;18.58;6.88;;;;;;;;;;5027704;28;20120;-59
2024/02/09 00:56:32;;;;;;;17.83;6.90;;;;;;;;;;5023842;28;20125;-58
2024/02/09 00:58:57;;;;;;;14.98;6.65;;;;;;;;;;5022635;28;20030;-58
2024/02/09 01:01:22;;;;;;;16.63;7.30;;;;;;;;;;5022953;28;20561;-59
2024/02/09 01:03:48;;;;;;;14.82;6.28;;;;;;;;;;5028153;28;20556;-59
2024/02/09 01:06:13;;;;;;;14.77;6.45;;;;;;;;;;5023758;28;20030;-58
2024/02/09 01:08:38;;;;;;;17.90;7.60;;;;;;;;;;5026205;28;20032;-57
2024/02/09 01:11:06;;;;;;;15.32;6.50;;;;;;;;;;5028867;28;20052;-58
2024/02/09 02:46:13;;;;;;;17.17;7.27;;;;;;;;;;5031285;28;20074;-58
2024/02/09 03:05:14;;;;;;;18.13;7.50;;;;;;;;;;5031109;28;20608;-57
2024/02/09 03:07:40;;;;;;;18.55;7.47;;;;;;;;;;5028369;28;20022;-58
2024/02/09 03:10:06;;;;;;;18.98;7.50;;;;;;;;;;5026157;28;20017;-58
2024/02/09 03:12:32;;;;;;;17.20;7.03;;;;;;;;;;5020481;28;20022;-59
2024/02/09 03:14:59;;;;;;;21.23;7.75;;;;;;;;;;5023877;28;20042;-58
2024/02/09 03:17:25;;;;;;;20.13;8.55;;;;;;;;;;5031593;28;20026;-58
2024/02/09 03:19:51;;;;;;;19.23;7.35;;;;;;;;;;5024529;28;20092;-58
2024/02/09 03:22:16;;;;;;;23.95;8.02;;;;;;;;;;5030329;28;20482;-57
2024/02/09 03:24:41;;;;;;;24.48;7.85;;;;;;;;;;5028484;28;20040;-58
2024/02/09 03:27:07;;;;;;;20.48;6.93;;;;;;;;;;5031031;28;20450;-58
2024/02/09 03:29:33;;;;;;;15.23;6.72;;;;;;;;;;5026828;28;20025;-59
2024/02/09 03:31:58;;;;;;;19.08;7.68;;;;;;;;;;5026960;28;20009;-59
2024/02/09 03:34:25;;;;;;;20.10;7.20;;;;;;;;;;5016130;28;20014;-60
2024/02/09 03:36:54;;;;;;;20.92;7.40;;;;;;;;;;5026934;28;20017;-59
2024/02/09 03:39:19;;;;;;;20.35;6.90;;;;;;;;;;5030495;28;20036;-58
2024/02/09 03:41:45;;;;;;;25.70;7.90;;;;;;;;;;5023721;28;20022;-59
2024/02/09 03:44:10;;;;;;;17.38;6.25;;;;;;;;;;5022209;28;20104;-59
2024/02/09 03:46:35;;;;;;;21.83;6.00;;;;;;;;;;5030434;28;20021;-59
2024/02/09 03:49:00;;;;;;;20.10;6.70;;;;;;;;;;5031289;28;20021;-58
2024/02/09 03:51:26;;;;;;;19.33;6.40;;;;;;;;;;5030282;28;20053;-60
2024/02/09 03:53:51;;;;;;;17.10;6.63;;;;;;;;;;5030181;28;20385;-59
2024/02/09 03:56:16;;;;;;;22.27;5.80;;;;;;;;;;5021957;28;20515;-59
2024/02/09 03:58:42;;;;;;;17.90;5.50;;;;;;;;;;5030818;28;20021;-58
2024/02/09 04:01:08;;;;;;;26.85;6.75;;;;;;;;;;5013614;28;20025;-59
2024/02/09 04:03:33;;;;;;;20.70;6.70;;;;;;;;;;5025426;28;20040;-61
2024/02/09 04:05:58;;;;;;;14.73;5.22;;;;;;;;;;5023428;28;20018;-58
2024/02/09 04:08:24;;;;;;;18.53;5.90;;;;;;;;;;5030323;28;20103;-59
2024/02/09 04:10:49;;;;;;;20.77;6.07;;;;;;;;;;5019454;28;20391;-59
2024/02/09 04:13:14;;;;;;;21.83;6.10;;;;;;;;;;5021453;28;20021;-59
2024/02/09 04:15:39;;;;;;;21.10;6.67;;;;;;;;;;5027473;28;20021;-58
2024/02/09 04:18:06;;;;;;;19.80;6.27;;;;;;;;;;5030466;28;20013;-58
2024/02/09 04:20:32;;;;;;;24.83;6.47;;;;;;;;;;5030519;28;20045;-59
2024/02/09 04:22:59;;;;;;;20.27;5.95;;;;;;;;;;5026652;28;20013;-59
2024/02/09 04:25:25;;;;;;;19.25;5.53;;;;;;;;;;5027483;28;20033;-58
2024/02/09 04:27:51;;;;;;;22.80;6.30;;;;;;;;;;5025017;28;20076;-59
2024/02/09 04:30:18;;;;;;;21.23;6.07;;;;;;;;;;5026430;28;20071;-59
2024/02/09 04:32:43;;;;;;;23.42;6.43;;;;;;;;;;5019544;28;20032;-58
2024/02/09 04:35:08;;;;;;;23.58;6.55;;;;;;;;;;5021957;28;20029;-59
2024/02/09 04:37:33;;;;;;;18.97;6.47;;;;;;;;;;5022292;28;20033;-59
2024/02/09 04:39:59;;;;;;;19.08;6.13;;;;;;;;;;5022889;28;20053;-58
2024/02/09 04:42:24;;;;;;;20.80;6.17;;;;;;;;;;5027254;28;20029;-58
2024/02/09 04:44:49;;;;;;;22.73;6.00;;;;;;;;;;5029897;28;20559;-58
2024/02/09 04:47:14;;;;;;;19.27;5.90;;;;;;;;;;5024574;28;20030;-58
2024/02/09 04:49:40;;;;;;;22.38;6.32;;;;;;;;;;5026689;28;20029;-58
2024/02/09 04:52:05;;;;;;;27.00;6.93;;;;;;;;;;5031436;28;20021;-59
2024/02/09 04:54:32;;;;;;;17.53;5.83;;;;;;;;;;5031206;28;20350;-59
2024/02/09 04:56:57;;;;;;;20.05;6.18;;;;;;;;;;5029265;28;20029;-60
2024/02/09 04:59:26;;;;;;;18.92;6.10;;;;;;;;;;5030472;28;20052;-60
2024/02/09 05:01:51;;;;;;;25.10;7.13;;;;;;;;;;5029060;28;20045;-58
2024/02/09 05:04:16;;;;;;;20.90;6.65;;;;;;;;;;5028314;28;20091;-59
2024/02/09 05:06:42;;;;;;;29.92;6.55;;;;;;;;;;5024667;28;20040;-58
2024/02/09 05:09:09;;;;;;;18.60;6.10;;;;;;;;;;5046026;28;20056;-59
2024/02/09 05:11:36;;;;;;;26.20;7.80;;;;;;;;;;5036115;28;20022;-59
2024/02/09 05:14:01;;;;;;;21.58;6.90;;;;;;;;;;5047073;28;20021;-59
2024/02/09 05:16:30;;;;;;;20.10;7.18;;;;;;;;;;5048618;28;20022;-59
2024/02/09 05:18:55;;;;;;;18.27;6.85;;;;;;;;;;5037912;28;20033;-61
2024/02/09 05:21:20;;;;;;;17.23;6.10;;;;;;;;;;5039372;28;20025;-59
2024/02/09 05:23:45;;;;;;;20.70;6.50;;;;;;;;;;5030509;28;20041;-59
2024/02/09 05:26:11;;;;;;;21.47;7.37;;;;;;;;;;5023933;28;20037;-59
2024/02/09 05:28:39;;;;;;;23.23;6.70;;;;;;;;;;5029862;28;20028;-60
2024/02/09 05:31:15;;;;;;;20.90;6.85;;;;;;;;;;5015568;28;20115;-59
2024/02/09 05:33:40;;;;;;;20.67;6.95;;;;;;;;;;5016755;28;20030;-59
2024/02/09 05:36:06;;;;;;;22.03;6.83;;;;;;;;;;5022560;28;20394;-59
2024/02/09 05:38:32;;;;;;;21.35;6.63;;;;;;;;;;5025083;28;20022;-60
2024/02/09 05:40:57;;;;;;;20.48;7.18;;;;;;;;;;5020559;28;20022;-61
2024/02/09 05:43:22;;;;;;;16.23;6.20;;;;;;;;;;5020830;28;20868;-58
2024/02/09 05:45:48;;;;;;;21.30;7.27;;;;;;;;;;5017356;28;20033;-59
2024/02/09 05:48:13;;;;;;;23.38;6.88;;;;;;;;;;5020329;28;20025;-57
2024/02/09 05:50:39;;;;;;;19.80;6.47;;;;;;;;;;5022062;28;20025;-58
2024/02/09 05:53:04;;;;;;;27.33;8.00;;;;;;;;;;5014932;28;20029;-59
2024/02/09 05:55:29;;;;;;;23.97;7.40;;;;;;;;;;5015931;28;20489;-60
2024/02/09 05:57:56;;;;;;;27.77;8.20;;;;;;;;;;5019519;28;20026;-59
2024/02/09 06:00:21;;;;;;;25.55;8.20;;;;;;;;;;5028588;28;20495;-58
2024/02/09 06:02:50;;;;;;;23.42;8.30;;;;;;;;;;5024800;28;20026;-58
2024/02/09 06:05:15;;;;;;;23.52;8.10;;;;;;;;;;5029135;28;20033;-59
2024/02/09 06:07:40;;;;;;;25.23;8.97;;;;;;;;;;5027518;28;20845;-58
2024/02/09 06:10:06;;;;;;;26.70;8.82;;;;;;;;;;5028277;28;20554;-59
2024/02/09 06:12:32;;;;;;;23.10;8.45;;;;;;;;;;5028061;28;20556;-58
2024/02/09 06:14:59;;;;;;;24.02;8.23;;;;;;;;;;5027229;28;20068;-58
2024/02/09 06:17:25;;;;;;;21.08;6.68;;;;;;;;;;5031917;28;20378;-59
2024/02/09 06:19:50;;;;;;;21.52;8.57;;;;;;;;;;5030118;28;20023;-64
2024/02/09 06:22:15;;;;;;;23.27;7.07;;;;;;;;;;5033625;28;20025;-58
2024/02/09 06:24:40;;;;;;;22.70;7.53;;;;;;;;;;5032545;28;20029;-59
2024/02/09 06:27:06;;;;;;;21.52;7.15;;;;;;;;;;5030353;28;20112;-58
2024/02/09 06:29:31;;;;;;;24.05;8.95;;;;;;;;;;5032755;28;20500;-58
2024/02/09 06:31:56;;;;;;;23.63;6.93;;;;;;;;;;5030661;28;20014;-58
2024/02/09 06:34:22;;;;;;;20.80;7.97;;;;;;;;;;5026787;28;20033;-59
2024/02/09 06:36:47;;;;;;;25.52;8.70;;;;;;;;;;5030935;28;20031;-59
2024/02/09 06:39:12;;;;;;;28.70;9.60;;;;;;;;;;5036401;28;20017;-58
2024/02/09 06:41:37;;;;;;;25.33;9.23;;;;;;;;;;5033339;28;20025;-59
2024/02/09 06:44:03;;;;;;;20.52;7.88;;;;;;;;;;5028568;28;20041;-59
2024/02/09 06:46:28;;;;;;;30.37;9.40;;;;;;;;;;5033549;28;20033;-60
2024/02/09 06:48:56;;;;;;;20.03;7.83;;;;;;;;;;5026383;28;20029;-59
2024/02/09 06:51:21;;;;;;;22.60;7.13;;;;;;;;;;5031425;28;20406;-59
2024/02/09 06:53:46;;;;;;;22.13;8.53;;;;;;;;;;5030456;28;20092;-58
2024/02/09 06:56:12;;;;;;;29.73;8.60;;;;;;;;;;5025598;28;20025;-58
2024/02/09 06:58:37;;;;;;;29.63;8.83;;;;;;;;;;5025749;28;20053;-59
2024/02/09 07:01:05;;;;;;;21.70;7.50;;;;;;;;;;5025808;28;20472;-60
2024/02/09 07:03:30;;;;;;;22.65;7.72;;;;;;;;;;5023350;28;20026;-58
2024/02/09 07:06:01;;;;;;;23.80;8.17;;;;;;;;;;5029578;28;20025;-59
2024/02/09 07:08:36;;;;;;;21.85;7.15;;;;;;;;;;5034292;28;20386;-58
2024/02/09 07:11:03;;;;;;;23.50;8.05;;;;;;;;;;5033467;28;20027;-58
2024/02/09 07:13:28;;;;;;;24.15;8.50;;;;;;;;;;5024119;28;20553;-60
2024/02/09 07:15:53;;;;;;;23.27;7.77;;;;;;;;;;5036687;28;20066;-59
2024/02/09 07:18:18;;;;;;;26.23;8.57;;;;;;;;;;5041500;28;20440;-58
2024/02/09 07:20:43;;;;;;;21.70;7.50;;;;;;;;;;5039164;28;20049;-59
2024/02/09 07:23:08;;;;;;;20.60;7.65;;;;;;;;;;5019976;28;20029;-58
2024/02/09 07:25:34;;;;;;;20.75;6.93;;;;;;;;;;5031163;28;20036;-58
2024/02/09 07:27:59;;;;;;;19.17;6.53;;;;;;;;;;5032921;28;20431;-58
2024/02/09 07:30:25;;;;;;;22.90;7.53;;;;;;;;;;5032856;28;20026;-58
2024/02/09 07:32:50;;;;;;;21.05;7.70;;;;;;;;;;5033096;28;20991;-58
2024/02/09 07:35:15;;;;;;;24.87;8.20;;;;;;;;;;5033462;28;20021;-58
2024/02/09 07:37:40;;;;;;;24.57;8.10;;;;;;;;;;5032114;28;21061;-58
2024/02/09 07:40:08;;;;;;;20.70;7.60;;;;;;;;;;5032770;28;20023;-58
2024/02/09 07:42:33;;;;;;;20.85;7.45;;;;;;;;;;5031371;28;20564;-58
2024/02/09 07:45:00;;;;;;;21.98;7.20;;;;;;;;;;5026257;28;20128;-59
2024/02/09 07:47:25;;;;;;;22.45;6.85;;;;;;;;;;5032052;28;20444;-58
2024/02/09 07:49:50;;;;;;;16.23;6.43;;;;;;;;;;5032647;28;20013;-59
2024/02/09 07:52:16;;;;;;;20.58;6.93;;;;;;;;;;5032756;28;20025;-59
2024/02/09 07:54:42;;;;;;;21.83;7.85;;;;;;;;;;5030419;28;20022;-59
2024/02/09 07:57:08;;;;;;;18.85;6.60;;;;;;;;;;5030230;28;20543;-59
2024/02/09 07:59:33;;;;;;;18.92;6.95;;;;;;;;;;5024884;28;20100;-57
2024/02/09 08:01:58;;;;;;;19.13;6.80;;;;;;;;;;5029734;28;20428;-58
2024/02/09 08:04:31;;;;;;;17.42;6.95;;;;;;;;;;5025301;28;20045;-57
2024/02/09 08:06:56;;;;;;;18.65;6.80;;;;;;;;;;5032327;28;20075;-59
2024/02/09 08:09:21;;;;;;;18.97;6.70;;;;;;;;;;5032770;28;20025;-59
2024/02/09 08:11:48;;;;;;;21.05;7.25;;;;;;;;;;5030841;28;20460;-58
2024/02/09 08:14:13;;;;;;;19.10;7.25;;;;;;;;;;5030509;28;20033;-58
2024/02/09 08:16:41;;;;;;;15.65;6.35;;;;;;;;;;5035979;28;20025;-58
2024/02/09 08:19:09;;;;;;;19.98;6.45;;;;;;;;;;5038445;28;20026;-59
2024/02/09 08:21:36;;;;;;;20.63;7.07;;;;;;;;;;5028610;28;20013;-59
2024/02/09 08:24:01;;;;;;;17.23;8.20;;;;;;;;;;5031254;28;20045;-59
2024/02/09 08:26:26;;;;;;;22.53;7.60;;;;;;;;;;5032631;28;20017;-57
2024/02/09 08:28:51;;;;;;;16.08;7.03;;;;;;;;;;5031805;28;20097;-59
2024/02/09 08:31:17;;;;;;;19.70;7.70;;;;;;;;;;5031734;28;20021;-59
2024/02/09 08:33:47;;;;;;;18.23;6.93;;;;;;;;;;5031594;28;20024;-58
2024/02/09 08:36:13;;;;;;;19.90;6.60;;;;;;;;;;5030589;28;20025;-58
2024/02/09 08:38:38;;;;;;;15.27;6.00;;;;;;;;;;5031982;28;20022;-58
2024/02/09 08:41:05;;;;;;;20.10;6.07;;;;;;;;;;5031430;28;20018;-58
2024/02/09 08:43:30;;;;;;;18.48;6.97;;;;;;;;;;5033090;28;20013;-58
2024/02/09 08:45:55;;;;;;;18.00;6.63;;;;;;;;;;5038460;28;20028;-60
2024/02/09 08:48:20;;;;;;;19.88;6.45;;;;;;;;;;5038146;28;20504;-58
2024/02/09 08:50:46;;;;;;;17.80;7.03;;;;;;;;;;5034263;28;20025;-58
2024/02/09 08:53:11;;;;;;;16.27;6.57;;;;;;;;;;5036040;28;20029;-59
2024/02/09 08:55:36;;;;;;;14.83;6.20;;;;;;;;;;5036310;28;20030;-59
2024/02/09 08:58:04;;;;;;;18.63;6.10;;;;;;;;;;5031824;28;20017;-58
2024/02/09 09:00:29;;;;;;;20.35;7.07;;;;;;;;;;5031108;28;20029;-60
2024/02/09 09:02:54;;;;;;;16.60;6.00;;;;;;;;;;5031151;28;20033;-58
2024/02/09 09:05:20;;;;;;;16.55;6.43;;;;;;;;;;5028525;28;20036;-57
2024/02/09 09:07:45;;;;;;;14.40;5.67;;;;;;;;;;5031594;28;20440;-59
2024/02/09 09:10:11;;;;;;;17.35;6.70;;;;;;;;;;5031010;28;20121;-57
2024/02/09 09:12:38;;;;;;;16.23;6.67;;;;;;;;;;5031250;28;20021;-57
2024/02/09 09:15:04;;;;;;;13.10;5.57;;;;;;;;;;5030823;28;20029;-58
2024/02/09 09:17:29;;;;;;;;;;;;;;;;;;5031175;28;20389;-58
2024/02/09 09:19:55;;;;;;;15.83;6.30;;;;;;;;;;5029508;28;19916;-59
2024/02/09 09:22:20;;;;;;;14.97;6.67;;;;;;;;;;5030381;28;20021;-58
2024/02/09 09:24:46;;;;;;;16.17;6.53;;;;;;;;;;5028218;28;20469;-58
2024/02/09 09:27:11;;;;;;;11.20;5.28;;;;;;;;;;5031243;28;20029;-58
2024/02/09 09:29:39;;;;;;;13.68;5.95;;;;;;;;;;5030629;28;20023;-57
2024/02/09 09:32:04;;;;;;;16.63;6.35;;;;;;;;;;5027502;28;20033;-57
2024/02/09 09:34:30;;;;;;;15.33;6.43;;;;;;;;;;5032689;28;20021;-59
2024/02/09 09:36:55;;;;;;;14.30;5.68;;;;;;;;;;5029682;28;20447;-58
2024/02/09 09:39:20;;;;;;;12.07;4.88;;;;;;;;;;5035005;28;20048;-58
2024/02/09 09:41:48;;;;;;;10.45;5.05;;;;;;;;;;5034648;28;20060;-57
2024/02/09 09:44:15;;;;;;;9.40;5.03;;;;;;;;;;5032506;28;20032;-58
2024/02/09 09:46:41;;;;;;;11.48;5.50;;;;;;;;;;5033010;28;20014;-58
2024/02/09 09:49:08;;;;;;;14.48;5.60;;;;;;;;;;5034866;28;20021;-58
2024/02/09 09:51:35;;;;;;;13.20;5.88;;;;;;;;;;5033475;28;20477;-59
2024/02/09 09:54:00;;;;;;;;;;;;;;;;;;5034417;28;20435;-58
2024/02/09 09:56:26;;;;;;;12.65;5.28;;;;;;;;;;5032384;28;19913;-58
2024/02/09 09:58:52;;;;;;;15.00;6.10;;;;;;;;;;5033996;28;20022;-59
2024/02/09 10:01:17;;;;;;;14.47;5.93;;;;;;;;;;5035032;28;20029;-59
2024/02/09 10:03:43;;;;;;;11.88;5.35;;;;;;;;;;5035036;28;20490;-58
2024/02/09 10:06:08;;;;;;;13.25;5.50;;;;;;;;;;5033003;28;20022;-60
2024/02/09 10:08:38;;;;;;;12.60;5.27;;;;;;;;;;5034383;28;20095;-58
2024/02/09 10:11:06;;;;;;;12.50;5.35;;;;;;;;;;5033666;28;20048;-59
2024/02/09 10:13:33;;;;;;;15.77;5.97;;;;;;;;;;5032167;28;20024;-58
2024/02/09 10:16:00;;;;;;;12.65;5.20;;;;;;;;;;5033622;28;20023;-60
2024/02/09 10:18:25;;;;;;;12.68;5.65;;;;;;;;;;5034399;28;20014;-57
2024/02/09 10:20:50;;;;;;;14.33;5.00;;;;;;;;;;5033995;28;20044;-59
2024/02/09 10:23:16;;;;;;;13.00;5.07;;;;;;;;;;5033884;28;20151;-59
2024/02/09 10:25:42;;;;;;;16.35;5.80;;;;;;;;;;5033986;28;20394;-59
2024/02/09 10:28:08;;;;;;;;;;;;;;;;;;5030856;28;20428;-59
2024/02/09 10:30:35;;;;;;;12.27;5.45;;;;;;;;;;5034506;28;19931;-58
2024/02/09 10:33:00;;;;;;;12.68;5.22;;;;;;;;;;5033759;28;20063;-59
2024/02/09 10:35:25;;;;;;;11.70;5.45;;;;;;;;;;5032478;28;20029;-61
2024/02/09 10:37:50;;;;;;;15.13;6.32;;;;;;;;;;5034932;28;20025;-59
2024/02/09 10:40:18;;;;;;;12.80;5.50;;;;;;;;;;5034803;28;20018;-59
2024/02/09 10:42:45;;;;;;;13.35;5.38;;;;;;;;;;5033474;28;20021;-58
2024/02/09 10:45:11;;;;;;;14.38;5.65;;;;;;;;;;5030522;28;20108;-58
2024/02/09 10:47:37;;;;;;;12.93;5.03;;;;;;;;;;5033764;28;20134;-59
2024/02/09 10:50:03;;;;;;;10.93;4.70;;;;;;;;;;5034255;28;20021;-59
2024/02/09 10:52:29;;;;;;;9.80;4.55;;;;;;;;;;5031107;28;20489;-58
2024/02/09 10:54:56;;;;;;;11.38;4.70;;;;;;;;;;5033129;28;20021;-60
2024/02/09 10:57:23;;;;;;;9.75;4.88;;;;;;;;;;5033877;28;20025;-59
2024/02/09 10:59:49;;;;;;;10.30;4.07;;;;;;;;;;5033853;28;20420;-59
2024/02/09 11:02:15;;;;;;;7.65;3.53;;;;;;;;;;5034025;28;20461;-58
2024/02/09 11:04:40;;;;;;;9.25;3.65;;;;;;;;;;5033699;28;20120;-59
2024/02/09 11:07:06;;;;;;;9.80;4.18;;;;;;;;;;5038099;28;20044;-60
2024/02/09 11:09:31;;;;;;;8.15;3.47;;;;;;;;;;5045899;28;20018;-59
2024/02/09 11:12:06;;;;;;;11.37;4.63;;;;;;;;;;5036656;28;20501;-58
2024/02/09 11:14:32;;;;;;;9.57;4.15;;;;;;;;;;5035300;28;20025;-59
2024/02/09 11:17:04;;;;;;;11.68;3.97;;;;;;;;;;5033117;28;20028;-59
2024/02/09 11:19:29;;;;;;;12.88;3.65;;;;;;;;;;5033760;28;20057;-58
2024/02/09 11:21:57;;;;;;;9.00;3.43;;;;;;;;;;5028487;28;20060;-58
2024/02/09 11:24:26;;;;;;;8.75;3.30;;;;;;;;;;5032328;28;20160;-59
2024/02/09 11:26:51;;;;;;;10.02;3.47;;;;;;;;;;5032896;28;20100;-58
2024/02/09 11:29:20;;;;;;;7.13;3.38;;;;;;;;;;5032718;28;20102;-58
2024/02/09 11:31:52;;;;;;;7.38;3.30;;;;;;;;;;5032568;28;20167;-60
2024/02/09 11:34:18;;;;;;;6.88;3.05;;;;;;;;;;5012893;28;20033;-58
2024/02/09 11:36:43;;;;;;;8.27;3.13;;;;;;;;;;5016076;28;20386;-58
2024/02/09 11:39:10;;;;;;;8.13;3.10;;;;;;;;;;5030079;28;20038;-59
2024/02/09 11:41:35;;;;;;;8.32;3.22;;;;;;;;;;5030107;28;20020;-59
2024/02/09 11:44:00;;;;;;;8.25;3.28;;;;;;;;;;5027527;28;20045;-59
2024/02/09 11:46:25;;;;;;;6.97;3.38;;;;;;;;;;5028128;28;20540;-59
2024/02/09 11:48:51;;;;;;;9.55;3.20;;;;;;;;;;5023754;28;20104;-59
2024/02/09 11:51:20;;;;;;;6.90;3.10;;;;;;;;;;5024974;28;20563;-58
2024/02/09 11:53:48;;;;;;;7.47;3.10;;;;;;;;;;5028438;28;20025;-59
2024/02/09 11:56:14;;;;;;;7.45;3.35;;;;;;;;;;5032461;28;20096;-59
2024/02/09 11:58:39;;;;;;;8.23;3.83;;;;;;;;;;5032146;28;20052;-58
2024/02/09 12:01:05;;;;;;;10.07;3.20;;;;;;;;;;5032790;28;20056;-59
2024/02/09 12:03:30;;;;;;;8.00;3.10;;;;;;;;;;5029447;28;20033;-59
2024/02/09 12:05:55;;;;;;;7.17;2.70;;;;;;;;;;5030216;28;20017;-59
2024/02/09 12:08:20;;;;;;;6.07;2.63;;;;;;;;;;5028566;28;20028;-58
2024/02/09 12:10:45;;;;;;;5.85;1.80;;;;;;;;;;5030560;28;20063;-58
2024/02/09 12:13:11;;;;;;;5.43;1.20;;;;;;;;;;5031495;28;20029;-58
2024/02/09 12:15:36;;;;;;;4.40;1.10;;;;;;;;;;5031747;28;20025;-59
2024/02/09 12:18:01;;;;;;;4.03;1.10;;;;;;;;;;5023254;28;20028;-58
2024/02/09 12:20:27;;;;;;;4.13;1.20;;;;;;;;;;5031580;28;20022;-59
2024/02/09 12:22:53;;;;;;;4.97;1.20;;;;;;;;;;5031771;28;20021;-59
2024/02/09 12:25:18;;;;;;;3.35;1.15;;;;;;;;;;5021618;28;20025;-58
2024/02/09 12:27:44;;;;;;;5.20;1.10;;;;;;;;;;5028772;28;20301;-58
2024/02/09 12:30:09;;;;;;;4.43;1.00;;;;;;;;;;5028799;28;20144;-59
2024/02/09 12:32:36;;;;;;;3.53;1.00;;;;;;;;;;5029801;28;20362;-58
2024/02/09 12:35:01;;;;;;;4.25;1.45;;;;;;;;;;5028958;28;20409;-58
2024/02/09 12:37:27;;;;;;;4.82;1.08;;;;;;;;;;5031447;28;20009;-57
2024/02/09 12:39:55;;;;;;;3.47;1.00;;;;;;;;;;5029176;28;20552;-58
2024/02/09 12:42:22;;;;;;;3.28;0.88;;;;;;;;;;5031159;28;20393;-58
2024/02/09 12:44:49;;;;;;;3.15;0.95;;;;;;;;;;5030531;28;20029;-59
2024/02/09 12:47:14;;;;;;;2.97;0.90;;;;;;;;;;5023240;28;20029;-58
2024/02/09 12:49:39;;;;;;;3.45;1.15;;;;;;;;;;5031349;28;20024;-60
2024/02/09 12:52:08;;;;;;;2.60;1.00;;;;;;;;;;5034400;28;20021;-60
2024/02/09 12:54:33;;;;;;;5.97;1.00;;;;;;;;;;5029413;28;20029;-58
2024/02/09 12:56:59;;;;;;;3.97;1.30;;;;;;;;;;5028055;28;20083;-58
2024/02/09 12:59:25;;;;;;;5.13;1.20;;;;;;;;;;5028947;28;20143;-58
2024/02/09 13:01:51;;;;;;;4.32;1.20;;;;;;;;;;5029816;28;20052;-60
2024/02/09 13:04:16;;;;;;;4.00;1.13;;;;;;;;;;5030183;28;20111;-58
2024/02/09 13:06:41;;;;;;;3.85;1.10;;;;;;;;;;5031174;28;20025;-58
2024/02/09 13:09:06;;;;;;;3.30;1.17;;;;;;;;;;5029422;28;20048;-58
2024/02/09 13:11:32;;;;;;;3.93;1.10;;;;;;;;;;5032219;28;20017;-58
2024/02/09 13:13:59;;;;;;;3.97;1.13;;;;;;;;;;5030306;28;20109;-58
2024/02/09 13:16:24;;;;;;;3.35;1.10;;;;;;;;;;5032104;28;20022;-58
2024/02/09 13:18:49;;;;;;;3.63;1.20;;;;;;;;;;5024386;28;20026;-59
2024/02/09 13:21:15;;;;;;;5.63;1.42;;;;;;;;;;5031221;28;20104;-58
2024/02/09 13:23:40;;;;;;;6.15;1.40;;;;;;;;;;5036891;28;20037;-59
2024/02/09 13:26:11;;;;;;;6.95;1.58;;;;;;;;;;5036442;28;20013;-63
2024/02/09 13:28:39;;;;;;;7.45;1.52;;;;;;;;;;5019855;28;20029;-59
2024/02/09 13:31:10;;;;;;;4.47;1.20;;;;;;;;;;5039727;28;20105;-60
2024/02/09 13:33:36;;;;;;;5.25;1.30;;;;;;;;;;5041993;28;20025;-59
2024/02/09 13:36:05;;;;;;;4.43;1.30;;;;;;;;;;5030548;28;20025;-59
2024/02/09 13:38:30;;;;;;;6.35;1.58;;;;;;;;;;5033139;28;20053;-58
2024/02/09 13:40:55;;;;;;;4.68;1.27;;;;;;;;;;5030337;28;20020;-59
2024/02/09 13:43:21;;;;;;;6.57;1.50;;;;;;;;;;5030477;28;20018;-59
2024/02/09 13:45:47;;;;;;;5.50;1.30;;;;;;;;;;5030339;28;20444;-59
2024/02/09 13:48:12;;;;;;;5.55;1.23;;;;;;;;;;5029179;28;20017;-59
2024/02/09 13:50:37;;;;;;;7.15;1.48;;;;;;;;;;5022480;28;20357;-59
2024/02/09 13:53:03;;;;;;;5.85;1.30;;;;;;;;;;5026688;28;20033;-58
2024/02/09 13:55:29;;;;;;;4.90;1.20;;;;;;;;;;5034552;28;20048;-59
2024/02/09 13:57:54;;;;;;;6.13;1.50;;;;;;;;;;5033068;28;20049;-59
2024/02/09 14:00:21;;;;;;;6.20;1.80;;;;;;;;;;5034935;28;20013;-58
2024/02/09 14:02:47;;;;;;;5.97;1.50;;;;;;;;;;5031810;28;20455;-57
2024/02/09 14:05:12;;;;;;;5.70;1.30;;;;;;;;;;5031006;28;20025;-58
2024/02/09 14:07:38;;;;;;;4.13;1.30;;;;;;;;;;5018917;28;20025;-58
2024/02/09 14:10:03;;;;;;;;;;;;;;;;;;5021755;28;20538;-58
2024/02/09 14:12:28;;;;;;;6.68;1.40;;;;;;;;;;5014590;28;20366;-59
2024/02/09 14:14:54;;;;;;;4.68;1.10;;;;;;;;;;5026621;28;20114;-59
2024/02/09 14:17:19;;;;;;;3.35;1.17;;;;;;;;;;5020315;28;20036;-59
2024/02/09 14:19:44;;;;;;;3.95;1.13;;;;;;;;;;5030370;28;20485;-58
2024/02/09 14:22:12;;;;;;;3.67;1.30;;;;;;;;;;5026235;28;20077;-59
2024/02/09 14:24:38;;;;;;;5.55;1.42;;;;;;;;;;5033195;28;20033;-58
2024/02/09 14:27:04;;;;;;;4.55;1.30;;;;;;;;;;5034973;28;20047;-59
2024/02/09 14:29:30;;;;;;;4.28;1.48;;;;;;;;;;5031281;28;20561;-57
2024/02/09 14:31:55;;;;;;;6.03;1.58;;;;;;;;;;5029094;28;20048;-59
2024/02/09 14:34:20;;;;;;;5.53;1.60;;;;;;;;;;5033361;28;20083;-57
2024/02/09 14:36:45;;;;;;;4.20;1.38;;;;;;;;;;5028924;28;20029;-57
2024/02/09 14:39:14;;;;;;;4.17;1.53;;;;;;;;;;5038175;28;20134;-57
2024/02/09 14:41:39;;;;;;;5.30;1.25;;;;;;;;;;5050786;28;20033;-57
2024/02/09 14:44:04;;;;;;;6.05;1.30;;;;;;;;;;5030637;28;20028;-58
2024/02/09 14:46:30;;;;;;;4.28;1.40;;;;;;;;;;5031091;28;20026;-58
2024/02/09 14:48:55;;;;;;;6.65;1.70;;;;;;;;;;5025453;28;20052;-57
2024/02/09 14:51:21;;;;;;;4.73;1.50;;;;;;;;;;5018526;28;20124;-58
2024/02/09 14:53:48;;;;;;;;;;;;;;;;;;5015749;28;20539;-58
2024/02/09 14:56:14;;;;;;;4.85;1.40;;;;;;;;;;5011924;28;19909;-58
2024/02/09 14:58:40;;;;;;;;;;;;;;;;;;5024053;28;20112;-58
2024/02/09 15:01:05;;;;;;;4.70;1.20;;;;;;;;;;5029203;28;20032;-58
2024/02/09 15:03:37;;;;;;;4.37;1.40;;;;;;;;;;5027271;28;20469;-57
2024/02/09 15:06:02;;;;;;;5.93;1.60;;;;;;;;;;5016527;28;20425;-58
2024/02/09 15:08:30;;;;;;;5.85;1.40;;;;;;;;;;5029788;28;20103;-59
2024/02/09 15:10:55;;;;;;;4.97;1.45;;;;;;;;;;5018524;28;20026;-58
2024/02/09 15:13:26;;;;;;;5.60;1.60;;;;;;;;;;5014239;28;20025;-59
2024/02/09 15:15:54;;;;;;;5.13;1.50;;;;;;;;;;5024857;28;20501;-57
2024/02/09 15:18:19;;;;;;;3.53;1.15;;;;;;;;;;5030306;28;20557;-58
2024/02/09 15:20:47;;;;;;;4.83;1.87;;;;;;;;;;5026846;28;20025;-58
2024/02/09 15:23:12;;;;;;;4.78;1.60;;;;;;;;;;5027274;28;20025;-58
2024/02/09 15:25:37;;;;;;;5.85;1.80;;;;;;;;;;5030944;28;20029;-57
2024/02/09 15:28:03;;;;;;;3.78;1.40;;;;;;;;;;5032985;28;20388;-58
2024/02/09 15:30:28;;;;;;;4.63;1.40;;;;;;;;;;5030847;28;20026;-57
2024/02/09 15:32:53;;;;;;;6.03;1.63;;;;;;;;;;5031124;28;20695;-57
2024/02/09 15:35:19;;;;;;;7.30;1.90;;;;;;;;;;5032414;28;20028;-57
2024/02/09 15:37:45;;;;;;;4.70;1.60;;;;;;;;;;5032123;28;20070;-57
2024/02/09 15:40:10;;;;;;;7.70;1.90;;;;;;;;;;5032808;28;20466;-59
2024/02/09 15:42:35;;;;;;;7.95;1.52;;;;;;;;;;5032877;28;20470;-57
2024/02/09 15:45:00;;;;;;;5.73;2.30;;;;;;;;;;5028469;28;20036;-58
2024/02/09 15:47:26;;;;;;;7.40;2.23;;;;;;;;;;5032054;28;20021;-57
2024/02/09 15:49:51;;;;;;;4.40;1.80;;;;;;;;;;5032002;28;20021;-58
2024/02/09 15:52:16;;;;;;;6.57;2.00;;;;;;;;;;5032085;28;20025;-58
2024/02/09 15:54:41;;;;;;;5.20;1.80;;;;;;;;;;5032579;28;20425;-58
2024/02/09 15:57:08;;;;;;;6.97;2.58;;;;;;;;;;5031218;28;20028;-57
2024/02/09 15:59:34;;;;;;;5.68;1.70;;;;;;;;;;5031809;28;20059;-57
2024/02/09 16:01:59;;;;;;;5.95;1.67;;;;;;;;;;5030767;28;20024;-59
2024/02/09 16:04:24;;;;;;;8.33;2.00;;;;;;;;;;5031589;28;20033;-57
2024/02/09 16:06:50;;;;;;;7.50;2.50;;;;;;;;;;5032153;28;20029;-58
2024/02/09 16:09:15;;;;;;;5.73;2.10;;;;;;;;;;5030502;28;20533;-58
2024/02/09 16:11:40;;;;;;;7.70;2.40;;;;;;;;;;5030462;28;20082;-58
2024/02/09 16:14:07;;;;;;;8.40;2.50;;;;;;;;;;5031019;28;20059;-59
2024/02/09 16:16:34;;;;;;;9.15;2.58;;;;;;;;;;5020211;28;20461;-57